Time;durP1;ratioP1;P1;durP2;ratioP2;P2;SDS_P1;SDS_P2;PMS_P1;PMS_P2;Temp;Humidity;BMP_temperature;BMP_pressure;BME280_temperature;BME280_humidity;BME280_pressure;Samples;Min_cycle;Max_cycle;Signal;HPM_P1;HPM_P2
2022/10/13 00:01:23;;;;;;;10.07;5.60;;;9.80;99.90;;;;;;5035669;28;20014;-73
2022/10/13 00:03:49;;;;;;;8.90;5.03;;;9.80;99.90;;;;;;5018019;28;20114;-72
2022/10/13 00:06:17;;;;;;;10.43;5.18;;;9.80;99.90;;;;;;5017606;28;20108;-72
2022/10/13 00:08:44;;;;;;;10.10;6.05;;;9.80;99.90;;;;;;5017974;28;20056;-72
2022/10/13 00:11:16;;;;;;;9.23;5.63;;;9.90;99.90;;;;;;5017470;28;20033;-73
2022/10/13 00:13:43;;;;;;;7.45;5.28;;;9.90;99.90;;;;;;5018351;28;20026;-72
2022/10/13 00:16:10;;;;;;;7.63;4.90;;;9.80;99.90;;;;;;5035424;28;20477;-72
2022/10/13 00:18:36;;;;;;;11.90;6.20;;;9.70;99.90;;;;;;5017707;28;20025;-72
2022/10/13 00:21:07;;;;;;;10.13;6.22;;;9.60;99.90;;;;;;5017359;28;20048;-72
2022/10/13 00:23:33;;;;;;;14.23;7.43;;;9.50;99.90;;;;;;5017409;28;20029;-74
2022/10/13 00:26:03;;;;;;;9.95;5.22;;;9.50;99.90;;;;;;5017213;28;20116;-76
2022/10/13 00:28:28;;;;;;;17.45;5.90;;;9.50;99.90;;;;;;5034926;28;20037;-75
2022/10/13 00:30:54;;;;;;;11.55;6.38;;;9.50;99.90;;;;;;5017056;28;20025;-75
2022/10/13 00:33:19;;;;;;;16.63;7.75;;;9.60;99.90;;;;;;5018306;28;20029;-76
2022/10/13 00:35:47;;;;;;;14.68;8.52;;;9.90;99.90;;;;;;5017121;28;20408;-76
2022/10/13 00:38:13;;;;;;;20.08;8.82;;;10.10;99.90;;;;;;5017294;28;20018;-75
2022/10/13 00:40:47;;;;;;;25.55;9.57;;;10.20;99.90;;;;;;5016905;28;20041;-75
2022/10/13 00:43:21;;;;;;;36.70;9.32;;;10.20;99.90;;;;;;5035074;28;20033;-75
2022/10/13 00:45:49;;;;;;;28.27;8.93;;;10.30;99.90;;;;;;5034959;28;20029;-75
2022/10/13 00:48:26;;;;;;;23.70;8.60;;;10.40;99.90;;;;;;5017749;28;20032;-75
2022/10/13 00:50:54;;;;;;;66.70;9.63;;;10.30;99.90;;;;;;5016851;28;20028;-75
2022/10/13 00:53:24;;;;;;;53.47;10.02;;;10.40;99.90;;;;;;5017702;28;20112;-75
2022/10/13 00:55:51;;;;;;;61.10;10.57;;;10.50;99.90;;;;;;5017067;28;20032;-75
2022/10/13 00:58:22;;;;;;;14.70;8.40;;;10.30;99.90;;;;;;5016967;28;20499;-75
2022/10/13 01:00:49;;;;;;;55.33;10.43;;;10.20;99.90;;;;;;5034749;28;20021;-75
2022/10/13 01:03:16;;;;;;;23.73;8.30;;;10.20;99.90;;;;;;5034230;28;20108;-73
2022/10/13 01:05:42;;;;;;;19.90;8.18;;;10.10;99.90;;;;;;5017157;28;20029;-73
2022/10/13 01:08:09;;;;;;;23.98;8.35;;;10.10;99.90;;;;;;5034487;28;20026;-73
2022/10/13 01:10:41;;;;;;;49.38;9.10;;;10.20;99.90;;;;;;5033866;28;20021;-73
2022/10/13 01:13:37;;;;;;;24.95;7.55;;;10.30;99.90;;;;;;5034552;28;20101;-73
2022/10/13 01:16:19;;;;;;;22.65;8.68;;;10.30;99.90;;;;;;5016379;28;20171;-73
2022/10/13 01:19:11;;;;;;;44.40;8.88;;;10.30;99.90;;;;;;5034350;28;20022;-73
2022/10/13 01:21:49;;;;;;;35.63;8.65;;;10.10;99.90;;;;;;5034298;28;20034;-74
2022/10/13 01:24:33;;;;;;;80.03;11.82;;;10.20;99.90;;;;;;5033972;28;20026;-74
2022/10/13 01:27:03;;;;;;;25.30;8.38;;;10.10;99.90;;;;;;5033909;28;20036;-74
2022/10/13 01:30:03;;;;;;;17.00;8.57;;;10.00;99.90;;;;;;5033941;28;20025;-74
2022/10/13 01:32:32;;;;;;;17.15;7.95;;;10.00;99.90;;;;;;5016026;28;20028;-74
2022/10/13 01:35:02;;;;;;;18.17;9.00;;;10.20;99.90;;;;;;5015993;28;20567;-74
2022/10/13 01:37:39;;;;;;;29.65;9.90;;;10.20;99.90;;;;;;5015950;28;20393;-74
2022/10/13 01:40:22;;;;;;;46.22;9.77;;;10.20;99.90;;;;;;5016003;28;20063;-75
2022/10/13 01:42:55;;;;;;;22.75;9.35;;;10.20;99.90;;;;;;5018416;23;20041;-74
2022/10/13 01:45:28;;;;;;;36.05;9.20;;;10.20;99.90;;;;;;5013878;28;20081;-74
2022/10/13 01:47:56;;;;;;;33.70;9.25;;;10.20;99.90;;;;;;5013518;28;20025;-74
2022/10/13 01:50:22;;;;;;;42.78;9.85;;;10.10;99.90;;;;;;5012458;28;20037;-74
2022/10/13 01:52:49;;;;;;;38.67;9.40;;;10.00;99.90;;;;;;5012408;28;20026;-74
2022/10/13 01:55:15;;;;;;;24.90;9.48;;;9.90;99.90;;;;;;5012465;28;20022;-74
2022/10/13 01:57:43;;;;;;;32.40;9.98;;;9.80;99.90;;;;;;5014038;28;20029;-74
2022/10/13 02:00:10;;;;;;;79.45;12.77;;;9.80;99.90;;;;;;5012694;28;20025;-74
2022/10/13 02:02:42;;;;;;;48.38;10.38;;;9.80;99.90;;;;;;5012350;28;20029;-76
2022/10/13 02:05:26;;;;;;;68.03;11.43;;;9.80;99.90;;;;;;5012718;28;20025;-75
2022/10/13 02:08:00;;;;;;;50.42;10.25;;;9.60;99.90;;;;;;5012486;28;20041;-75
2022/10/13 02:10:32;;;;;;;47.90;11.57;;;9.60;99.90;;;;;;5013839;28;20116;-75
2022/10/13 02:13:03;;;;;;;64.55;10.93;;;9.60;99.90;;;;;;5012333;28;20113;-75
2022/10/13 02:15:57;;;;;;;18.13;7.90;;;9.50;99.90;;;;;;5013615;28;20076;-75
2022/10/13 02:18:27;;;;;;;56.88;10.13;;;9.70;99.90;;;;;;5010200;28;20029;-75
2022/10/13 02:20:54;;;;;;;47.17;9.40;;;9.90;99.90;;;;;;5013270;28;20029;-74
2022/10/13 02:23:20;;;;;;;53.65;11.13;;;9.80;99.90;;;;;;5015898;28;20026;-75
2022/10/13 02:25:47;;;;;;;74.50;12.82;;;9.80;99.90;;;;;;5017506;28;20543;-75
2022/10/13 02:28:14;;;;;;;72.32;11.00;;;9.70;99.90;;;;;;5016157;28;20104;-75
2022/10/13 02:30:40;;;;;;;94.57;13.23;;;9.60;99.90;;;;;;5017309;28;20105;-75
2022/10/13 02:33:07;;;;;;;68.97;12.60;;;9.40;99.90;;;;;;5016524;28;20112;-75
2022/10/13 02:35:33;;;;;;;78.72;11.48;;;9.40;99.90;;;;;;5017559;28;20022;-75
2022/10/13 02:37:59;;;;;;;51.45;10.52;;;9.40;99.90;;;;;;5017392;28;20076;-75
2022/10/13 02:40:25;;;;;;;75.35;11.82;;;9.40;99.90;;;;;;5015967;28;20029;-75
2022/10/13 02:42:50;;;;;;;112.85;13.90;;;9.30;99.90;;;;;;5015984;28;20069;-75
2022/10/13 02:45:16;;;;;;;44.20;9.80;;;9.30;99.90;;;;;;5016273;28;20033;-75
2022/10/13 02:47:42;;;;;;;139.68;13.20;;;9.30;99.90;;;;;;5017280;28;20068;-75
2022/10/13 02:50:07;;;;;;;61.08;10.35;;;9.30;99.90;;;;;;5018582;28;20048;-75
2022/10/13 02:52:33;;;;;;;18.27;8.38;;;9.30;99.90;;;;;;5017290;28;20044;-75
2022/10/13 02:54:59;;;;;;;32.42;9.68;;;9.30;99.90;;;;;;5017267;28;20022;-75
2022/10/13 02:57:24;;;;;;;32.35;9.10;;;9.30;99.90;;;;;;5015716;28;20487;-75
2022/10/13 02:59:50;;;;;;;16.88;7.97;;;9.30;99.90;;;;;;5017175;28;20034;-75
2022/10/13 03:02:16;;;;;;;20.77;8.05;;;9.20;99.90;;;;;;5016849;28;20037;-75
2022/10/13 03:04:42;;;;;;;18.67;7.25;;;9.30;99.90;;;;;;5015485;28;20033;-76
2022/10/13 03:07:08;;;;;;;15.18;7.15;;;9.30;99.90;;;;;;5017117;28;20121;-76
2022/10/13 03:09:33;;;;;;;16.90;7.57;;;9.40;99.90;;;;;;5016638;28;20029;-75
2022/10/13 03:11:59;;;;;;;16.48;7.53;;;9.50;99.90;;;;;;5016606;28;20105;-75
2022/10/13 03:14:25;;;;;;;17.23;7.97;;;9.50;99.90;;;;;;5015435;28;20014;-76
2022/10/13 03:16:50;;;;;;;17.25;6.78;;;9.50;99.90;;;;;;5015394;28;20072;-73
2022/10/13 03:19:16;;;;;;;14.27;6.57;;;9.50;99.90;;;;;;5016304;28;20092;-73
2022/10/13 03:21:41;;;;;;;14.00;7.10;;;9.50;99.90;;;;;;5015418;28;20048;-72
2022/10/13 03:24:07;;;;;;;14.15;6.63;;;9.60;99.90;;;;;;5015863;28;20028;-73
2022/10/13 03:26:33;;;;;;;13.45;7.57;;;9.60;99.90;;;;;;5015087;28;20028;-74
2022/10/13 03:28:59;;;;;;;17.95;7.28;;;9.60;99.90;;;;;;5015083;28;20489;-74
2022/10/13 03:31:25;;;;;;;19.63;6.68;;;9.60;99.90;;;;;;5015017;28;20030;-73
2022/10/13 03:33:50;;;;;;;20.58;7.53;;;9.50;99.90;;;;;;5016206;28;20018;-73
2022/10/13 03:36:16;;;;;;;19.42;7.25;;;9.50;99.90;;;;;;5015773;28;20025;-73
2022/10/13 03:38:42;;;;;;;20.10;8.07;;;9.50;99.90;;;;;;5016419;28;20038;-73
2022/10/13 03:41:11;;;;;;;15.18;7.57;;;9.50;99.90;;;;;;5015800;28;20041;-73
2022/10/13 03:43:37;;;;;;;20.05;7.93;;;9.50;99.90;;;;;;5015735;28;20164;-72
2022/10/13 03:46:05;;;;;;;16.38;7.40;;;9.60;99.90;;;;;;5015435;28;20076;-72
2022/10/13 03:48:32;;;;;;;16.02;7.45;;;9.70;99.90;;;;;;5015971;28;20080;-72
2022/10/13 03:50:58;;;;;;;18.00;8.43;;;9.90;99.90;;;;;;5015837;28;20026;-73
2022/10/13 03:53:24;;;;;;;16.00;7.05;;;10.10;99.90;;;;;;5015438;28;20025;-73
2022/10/13 03:55:52;;;;;;;17.67;7.93;;;10.20;99.90;;;;;;5016323;28;20033;-73
2022/10/13 03:58:18;;;;;;;19.83;8.48;;;10.20;99.90;;;;;;5015046;28;20026;-73
2022/10/13 04:00:44;;;;;;;20.45;8.63;;;10.20;99.90;;;;;;5014801;28;20026;-73
2022/10/13 04:03:10;;;;;;;26.05;9.85;;;10.30;99.90;;;;;;5014839;28;20029;-73
2022/10/13 04:05:35;;;;;;;21.13;8.45;;;10.20;99.90;;;;;;5015715;28;20485;-73
2022/10/13 04:08:01;;;;;;;18.60;7.93;;;10.20;99.90;;;;;;5015618;28;20041;-73
2022/10/13 04:10:27;;;;;;;20.25;8.70;;;10.30;99.90;;;;;;5015723;28;20030;-73
2022/10/13 04:12:52;;;;;;;23.77;9.52;;;10.40;99.90;;;;;;5014249;28;20021;-73
2022/10/13 04:15:18;;;;;;;22.25;8.73;;;10.30;99.90;;;;;;5014249;28;20022;-73
2022/10/13 04:17:43;;;;;;;18.42;8.70;;;10.30;99.90;;;;;;5014218;28;20109;-73
2022/10/13 04:20:09;;;;;;;19.52;8.48;;;10.30;99.90;;;;;;5014288;28;20022;-73
2022/10/13 04:22:35;;;;;;;16.25;8.05;;;10.30;99.90;;;;;;5014474;28;20025;-73
2022/10/13 04:25:00;;;;;;;17.73;8.38;;;10.30;99.90;;;;;;5014287;28;20029;-73
2022/10/13 04:27:26;;;;;;;28.17;9.18;;;10.30;99.90;;;;;;5014280;28;20123;-73
2022/10/13 04:29:52;;;;;;;29.60;10.38;;;10.30;99.90;;;;;;5013900;28;20033;-73
2022/10/13 04:32:17;;;;;;;21.42;9.15;;;10.30;99.90;;;;;;5013853;28;20028;-73
2022/10/13 04:34:43;;;;;;;30.13;8.85;;;10.20;99.90;;;;;;5013839;28;20018;-73
2022/10/13 04:37:09;;;;;;;37.15;10.40;;;10.10;99.90;;;;;;5013841;28;20054;-73
2022/10/13 04:39:35;;;;;;;41.47;9.93;;;9.90;99.90;;;;;;5014666;28;20484;-72
2022/10/13 04:42:00;;;;;;;49.97;11.35;;;9.80;99.90;;;;;;5014746;28;20062;-73
2022/10/13 04:44:26;;;;;;;45.63;10.77;;;9.70;99.90;;;;;;5013138;28;20022;-73
2022/10/13 04:46:51;;;;;;;100.57;14.57;;;9.60;99.90;;;;;;5013673;28;20029;-73
2022/10/13 04:49:17;;;;;;;34.33;10.85;;;9.60;99.90;;;;;;5013539;28;20030;-73
2022/10/13 04:51:53;;;;;;;70.43;12.63;;;9.60;99.90;;;;;;5013480;28;20018;-73
2022/10/13 04:54:18;;;;;;;63.08;11.60;;;9.60;99.90;;;;;;5014746;28;20029;-73
2022/10/13 04:56:45;;;;;;;83.75;12.07;;;9.50;99.90;;;;;;5013879;28;20022;-72
2022/10/13 04:59:11;;;;;;;42.65;9.95;;;9.50;99.90;;;;;;5014550;28;20057;-72
2022/10/13 05:01:37;;;;;;;29.52;9.50;;;9.50;99.90;;;;;;5013325;28;20026;-73
2022/10/13 05:04:04;;;;;;;44.20;10.07;;;9.50;99.90;;;;;;5013692;28;20064;-73
2022/10/13 05:06:32;;;;;;;25.30;10.40;;;9.50;99.90;;;;;;5013298;28;20022;-73
2022/10/13 05:08:58;;;;;;;50.20;9.45;;;9.60;99.90;;;;;;5014496;28;20060;-73
2022/10/13 05:11:25;;;;;;;47.35;11.05;;;9.60;99.90;;;;;;5013158;28;20056;-73
2022/10/13 05:13:52;;;;;;;54.00;10.40;;;9.60;99.90;;;;;;5013242;28;20026;-73
2022/10/13 05:16:20;;;;;;;34.40;9.82;;;9.60;99.90;;;;;;5013153;28;20020;-73
2022/10/13 05:18:46;;;;;;;31.45;11.20;;;9.50;99.90;;;;;;5014359;28;20025;-73
2022/10/13 05:21:15;;;;;;;26.77;9.70;;;9.50;99.90;;;;;;5014533;28;20034;-73
2022/10/13 05:23:40;;;;;;;40.55;9.82;;;9.50;99.90;;;;;;5014295;28;20124;-73
2022/10/13 05:26:11;;;;;;;28.70;8.90;;;9.50;99.90;;;;;;5013707;28;20093;-73
2022/10/13 05:28:37;;;;;;;33.33;9.50;;;9.50;99.90;;;;;;5014282;28;20105;-73
2022/10/13 05:31:10;;;;;;;25.20;9.07;;;9.60;99.90;;;;;;5013587;28;20072;-73
2022/10/13 05:33:36;;;;;;;24.35;8.57;;;9.60;99.90;;;;;;5012914;28;20092;-72
2022/10/13 05:36:04;;;;;;;21.67;9.48;;;9.60;99.90;;;;;;5013168;28;20026;-72
2022/10/13 05:38:30;;;;;;;21.98;8.35;;;9.60;99.90;;;;;;5012769;28;20026;-72
2022/10/13 05:41:01;;;;;;;15.38;7.80;;;9.60;99.90;;;;;;5012575;28;20029;-72
2022/10/13 05:43:27;;;;;;;;;;;9.70;99.90;;;;;;5013225;28;20030;-73
2022/10/13 05:45:52;;;;;;;15.93;7.68;;;9.70;99.90;;;;;;5013856;28;19905;-73
2022/10/13 05:48:18;;;;;;;16.58;7.95;;;9.80;99.90;;;;;;5013019;28;20025;-73
2022/10/13 05:50:43;;;;;;;19.33;8.30;;;9.80;99.90;;;;;;5012530;28;20022;-73
2022/10/13 05:53:09;;;;;;;19.08;8.52;;;10.00;99.90;;;;;;5012559;28;20026;-73
2022/10/13 05:55:34;;;;;;;16.50;7.68;;;10.10;99.90;;;;;;5012214;28;20029;-73
2022/10/13 05:58:01;;;;;;;16.83;7.85;;;10.10;99.90;;;;;;5011979;28;20033;-74
2022/10/13 06:00:27;;;;;;;21.85;8.57;;;10.30;99.90;;;;;;5012487;28;20029;-74
2022/10/13 06:03:02;;;;;;;16.63;8.63;;;10.20;99.90;;;;;;5012239;28;20032;-75
2022/10/13 06:05:31;;;;;;;20.60;9.55;;;10.20;99.90;;;;;;5012422;28;20124;-75
2022/10/13 06:07:58;;;;;;;16.33;8.40;;;10.40;99.90;;;;;;5013702;28;20026;-73
2022/10/13 06:10:23;;;;;;;21.75;8.57;;;10.50;99.90;;;;;;5013569;28;20030;-73
2022/10/13 06:12:49;;;;;;;16.20;7.88;;;10.60;99.90;;;;;;5012643;28;20491;-76
2022/10/13 06:15:15;;;;;;;14.00;6.90;;;10.60;99.90;;;;;;5012323;28;20018;-73
2022/10/13 06:17:40;;;;;;;13.73;7.68;;;10.70;99.90;;;;;;5012504;28;20148;-73
2022/10/13 06:20:07;;;;;;;15.30;6.32;;;10.70;99.90;;;;;;5013097;28;20030;-75
2022/10/13 06:22:34;;;;;;;12.50;7.00;;;10.80;99.90;;;;;;5012094;28;20117;-74
2022/10/13 06:25:00;;;;;;;12.18;6.35;;;10.80;99.90;;;;;;5012525;28;20022;-75
2022/10/13 06:27:26;;;;;;;12.57;6.60;;;10.80;99.90;;;;;;5013496;28;20065;-75
2022/10/13 06:29:51;;;;;;;21.13;8.20;;;10.80;99.90;;;;;;5013026;28;20057;-76
2022/10/13 06:32:17;;;;;;;17.15;8.18;;;10.80;99.90;;;;;;5012059;28;20056;-75
2022/10/13 06:34:42;;;;;;;19.02;8.07;;;10.60;99.90;;;;;;5013684;28;20022;-73
2022/10/13 06:37:08;;;;;;;22.50;8.40;;;10.60;99.90;;;;;;5012126;28;20028;-75
2022/10/13 06:39:34;;;;;;;43.13;9.27;;;10.60;99.90;;;;;;5012089;28;20026;-73
2022/10/13 06:41:59;;;;;;;22.08;7.85;;;10.50;99.90;;;;;;5011790;28;20065;-73
2022/10/13 06:44:25;;;;;;;27.92;9.13;;;10.40;99.90;;;;;;5013231;28;20041;-74
2022/10/13 06:46:50;;;;;;;50.17;9.65;;;10.40;99.90;;;;;;5012616;28;20022;-74
2022/10/13 06:49:16;;;;;;;40.88;9.90;;;10.30;99.90;;;;;;5012959;28;20355;-73
2022/10/13 06:51:42;;;;;;;49.00;9.68;;;10.10;99.90;;;;;;5013174;28;20025;-74
2022/10/13 06:54:07;;;;;;;35.55;9.80;;;10.10;99.90;;;;;;5012038;28;20022;-75
2022/10/13 06:56:33;;;;;;;29.85;8.85;;;10.00;99.90;;;;;;5013268;28;20037;-75
2022/10/13 06:58:58;;;;;;;23.42;8.32;;;10.00;99.90;;;;;;5013482;28;20030;-74
2022/10/13 07:01:24;;;;;;;51.20;10.73;;;10.00;99.90;;;;;;5011681;28;20080;-74
2022/10/13 07:03:50;;;;;;;31.40;9.75;;;10.10;99.90;;;;;;5013058;28;20101;-74
2022/10/13 07:06:17;;;;;;;24.70;9.55;;;10.10;99.90;;;;;;5011788;28;20029;-74
2022/10/13 07:08:42;;;;;;;24.48;9.70;;;10.10;99.90;;;;;;5014081;28;20033;-74
2022/10/13 07:11:11;;;;;;;36.53;10.40;;;10.10;99.90;;;;;;5016482;28;20030;-74
2022/10/13 07:13:38;;;;;;;24.63;9.68;;;10.10;99.90;;;;;;5017247;28;20037;-75
2022/10/13 07:16:04;;;;;;;21.40;9.45;;;10.30;99.90;;;;;;5016528;28;20105;-75
2022/10/13 07:18:30;;;;;;;23.20;9.40;;;10.40;99.90;;;;;;5015266;28;20045;-75
2022/10/13 07:20:58;;;;;;;19.55;9.00;;;10.50;99.90;;;;;;5015294;28;20064;-75
2022/10/13 07:23:24;;;;;;;29.90;9.75;;;10.70;99.90;;;;;;5015620;28;20061;-76
2022/10/13 07:25:49;;;;;;;18.92;9.35;;;10.80;99.90;;;;;;5015186;28;20026;-76
2022/10/13 07:28:15;;;;;;;20.38;9.70;;;10.80;99.90;;;;;;5016497;28;20025;-75
2022/10/13 07:30:40;;;;;;;31.33;9.35;;;10.60;99.90;;;;;;5015076;28;20529;-76
2022/10/13 07:33:06;;;;;;;27.48;11.75;;;10.40;99.90;;;;;;5015343;28;20393;-76
2022/10/13 07:35:32;;;;;;;36.70;9.88;;;10.30;99.90;;;;;;5014919;28;20099;-76
2022/10/13 07:37:57;;;;;;;39.95;10.77;;;10.40;99.90;;;;;;5015026;28;20172;-76
2022/10/13 07:40:23;;;;;;;19.50;9.55;;;10.40;99.90;;;;;;5016044;28;20037;-75
2022/10/13 07:42:49;;;;;;;23.35;10.27;;;10.40;99.90;;;;;;5035917;23;20053;-67
2022/10/13 07:45:14;;;;;;;30.08;8.68;;;10.40;99.90;;;;;;5016410;28;20022;-67
2022/10/13 07:47:40;;;;;;;24.90;9.60;;;10.40;99.90;;;;;;5016184;28;20029;-67
2022/10/13 07:50:06;;;;;;;20.75;9.82;;;10.40;99.90;;;;;;5014927;28;20034;-67
2022/10/13 07:52:34;;;;;;;24.05;9.82;;;10.50;99.90;;;;;;5022831;28;20060;-67
2022/10/13 07:55:00;;;;;;;19.10;9.52;;;10.60;99.90;;;;;;5014934;28;20030;-67
2022/10/13 07:57:26;;;;;;;19.67;9.15;;;10.70;99.90;;;;;;5016277;28;20030;-67
2022/10/13 07:59:52;;;;;;;27.23;10.13;;;10.80;99.90;;;;;;5016437;28;20025;-67
2022/10/13 08:02:18;;;;;;;21.60;10.18;;;10.80;99.90;;;;;;5014536;28;20022;-67
2022/10/13 08:04:44;;;;;;;18.77;9.27;;;10.80;99.90;;;;;;5014533;28;20034;-67
2022/10/13 08:07:10;;;;;;;26.52;9.73;;;10.90;99.90;;;;;;5014785;28;20137;-67
2022/10/13 08:09:36;;;;;;;25.58;9.02;;;10.90;99.90;;;;;;5015705;28;20029;-67
2022/10/13 08:12:01;;;;;;;17.17;9.13;;;10.90;99.90;;;;;;5015892;28;20140;-67
2022/10/13 08:14:27;;;;;;;22.02;9.85;;;11.00;99.90;;;;;;5014458;28;20029;-69
2022/10/13 08:16:53;;;;;;;19.23;10.00;;;11.10;99.90;;;;;;5014294;28;20071;-69
2022/10/13 08:19:20;;;;;;;21.70;9.68;;;11.20;99.90;;;;;;5013945;28;20491;-69
2022/10/13 08:21:47;;;;;;;17.38;8.90;;;11.30;99.90;;;;;;5014254;28;20045;-69
2022/10/13 08:24:15;;;;;;;22.10;10.07;;;11.30;99.90;;;;;;5014421;28;20026;-69
2022/10/13 08:26:42;;;;;;;23.05;10.38;;;11.20;99.90;;;;;;5014459;28;20084;-69
2022/10/13 08:29:08;;;;;;;21.10;10.13;;;11.20;99.90;;;;;;5014263;28;20481;-69
2022/10/13 08:31:34;;;;;;;22.75;10.77;;;11.20;99.90;;;;;;5014744;28;20030;-67
2022/10/13 08:33:59;;;;;;;28.98;11.43;;;11.20;99.90;;;;;;5014856;28;20018;-67
2022/10/13 08:36:25;;;;;;;19.50;9.57;;;11.20;99.90;;;;;;5014286;28;20026;-70
2022/10/13 08:38:52;;;;;;;20.20;10.88;;;11.20;99.90;;;;;;5015034;28;20017;-70
2022/10/13 08:41:30;;;;;;;26.15;11.90;;;11.20;99.90;;;;;;5015536;28;20025;-70
2022/10/13 08:44:34;;;;;;;23.20;10.52;;;11.20;99.90;;;;;;5015427;28;20077;-70
2022/10/13 08:47:19;;;;;;;22.67;10.30;;;11.20;99.90;;;;;;4954944;28;20513;-69
2022/10/13 08:49:45;;;;;;;24.42;11.30;;;11.20;99.90;;;;;;4955176;29;20027;-69
2022/10/13 08:52:26;;;;;;;17.92;10.57;;;11.30;99.90;;;;;;4955342;29;20094;-70
2022/10/13 08:54:54;;;;;;;23.45;11.63;;;11.40;99.90;;;;;;4940751;29;20027;-70
2022/10/13 08:57:20;;;;;;;20.52;10.82;;;11.40;99.90;;;;;;4948963;28;20135;-67
2022/10/13 08:59:46;;;;;;;22.42;10.20;;;11.50;99.90;;;;;;4938390;29;20110;-70
2022/10/13 09:02:25;;;;;;;23.23;10.88;;;11.50;99.90;;;;;;4939394;29;20034;-70
2022/10/13 09:04:52;;;;;;;25.05;13.32;;;11.60;99.90;;;;;;4956757;29;20095;-70
2022/10/13 09:07:26;;;;;;;28.42;12.40;;;11.50;99.90;;;;;;4939338;29;20027;-70
2022/10/13 09:09:53;;;;;;;27.35;11.40;;;11.50;99.90;;;;;;4938343;29;20035;-69
2022/10/13 09:12:23;;;;;;;29.98;12.18;;;11.50;99.90;;;;;;4938026;29;20027;-70
2022/10/13 09:15:04;;;;;;;28.70;12.55;;;11.60;99.90;;;;;;4954343;29;20055;-69
2022/10/13 09:17:31;;;;;;;25.48;11.65;;;11.70;99.90;;;;;;4939095;29;20134;-72
2022/10/13 09:20:01;;;;;;;22.25;11.60;;;11.70;99.90;;;;;;4938157;29;20484;-71
2022/10/13 09:22:33;;;;;;;29.02;12.27;;;11.60;99.90;;;;;;4962054;28;20035;-71
2022/10/13 09:25:21;;;;;;;31.20;13.48;;;11.60;99.90;;;;;;5013919;28;20034;-72
2022/10/13 09:27:51;;;;;;;29.08;12.88;;;11.70;99.90;;;;;;5016345;28;20026;-72
2022/10/13 09:30:38;;;;;;;27.02;13.60;;;11.80;99.90;;;;;;5014282;28;20075;-72
2022/10/13 09:33:07;;;;;;;30.75;14.57;;;11.80;99.90;;;;;;5012912;28;20022;-71
2022/10/13 09:35:37;;;;;;;27.60;13.57;;;11.80;99.90;;;;;;5014277;28;20040;-69
2022/10/13 09:38:11;;;;;;;35.70;13.50;;;11.80;99.90;;;;;;5013609;28;20029;-72
2022/10/13 09:40:39;;;;;;;29.85;13.52;;;11.90;99.90;;;;;;5014695;28;20037;-70
2022/10/13 09:43:19;;;;;;;30.33;13.80;;;12.00;99.90;;;;;;5013311;28;20040;-72
2022/10/13 09:45:45;;;;;;;29.40;13.07;;;12.00;99.90;;;;;;5014543;28;20116;-70
2022/10/13 09:48:22;;;;;;;33.40;13.25;;;12.00;99.90;;;;;;5014530;28;20116;-70
2022/10/13 09:50:50;;;;;;;30.90;12.80;;;12.00;99.90;;;;;;5013423;28;20030;-71
2022/10/13 09:53:39;;;;;;;31.23;13.05;;;12.00;99.90;;;;;;5015032;28;20018;-72
2022/10/13 09:56:07;;;;;;;28.75;13.48;;;12.10;99.90;;;;;;5016026;28;20025;-73
2022/10/13 09:58:39;;;;;;;26.85;13.48;;;12.20;99.90;;;;;;5015519;28;20018;-73
2022/10/13 10:01:05;;;;;;;31.98;13.45;;;12.20;99.90;;;;;;5013495;28;20029;-71
2022/10/13 10:03:36;;;;;;;34.95;14.75;;;12.30;99.90;;;;;;5021023;28;20060;-71
2022/10/13 10:06:13;;;;;;;33.28;13.95;;;12.30;99.90;;;;;;5013843;28;20022;-72
2022/10/13 10:08:46;;;;;;;35.97;14.70;;;12.20;99.90;;;;;;5014709;28;20049;-70
2022/10/13 10:11:24;;;;;;;37.50;16.65;;;12.20;99.90;;;;;;5013751;28;20018;-69
2022/10/13 10:13:51;;;;;;;33.80;14.55;;;12.10;99.90;;;;;;5013595;28;20104;-70
2022/10/13 10:16:16;;;;;;;31.70;13.65;;;12.20;99.90;;;;;;5012498;28;20109;-71
2022/10/13 10:18:53;;;;;;;33.72;14.68;;;12.30;99.90;;;;;;5013398;28;20072;-73
2022/10/13 10:21:48;;;;;;;33.10;14.32;;;12.30;99.90;;;;;;5013780;28;20026;-72
2022/10/13 10:24:37;;;;;;;37.38;15.50;;;12.30;99.90;;;;;;5013527;28;20026;-70
2022/10/13 10:27:29;;;;;;;35.42;16.00;;;12.20;99.90;;;;;;5013484;28;20018;-69
2022/10/13 10:30:05;;;;;;;40.50;16.00;;;12.10;99.90;;;;;;5006765;28;20038;-72
2022/10/13 10:32:49;;;;;;;41.08;16.08;;;12.10;99.90;;;;;;5012747;28;20050;-71
2022/10/13 10:35:40;;;;;;;42.83;18.00;;;12.10;99.90;;;;;;5015833;28;20033;-71
2022/10/13 10:38:17;;;;;;;43.08;17.65;;;12.10;99.90;;;;;;5011907;28;20125;-71
2022/10/13 10:41:15;;;;;;;42.22;18.00;;;12.20;99.90;;;;;;5012181;28;20083;-70
2022/10/13 10:43:55;;;;;;;46.65;18.15;;;12.20;99.90;;;;;;4996327;28;20069;-72
2022/10/13 10:46:31;;;;;;;45.15;17.95;;;12.30;99.90;;;;;;5019706;28;20025;-72
2022/10/13 10:49:00;;;;;;;40.28;17.45;;;12.50;99.90;;;;;;5019912;28;20021;-72
2022/10/13 10:51:36;;;;;;;50.97;20.02;;;12.60;99.90;;;;;;5018350;28;20049;-72
2022/10/13 10:54:22;;;;;;;43.03;19.70;;;12.70;99.90;;;;;;5018934;28;20022;-72
2022/10/13 10:57:08;;;;;;;40.50;18.52;;;12.70;99.90;;;;;;5018149;28;20072;-72
2022/10/13 11:00:05;;;;;;;38.40;16.52;;;12.60;99.90;;;;;;5017617;28;20022;-72
2022/10/13 11:02:46;;;;;;;43.47;18.08;;;12.60;99.90;;;;;;5017326;28;20028;-72
2022/10/13 11:05:12;;;;;;;52.35;20.27;;;12.70;99.90;;;;;;5018309;28;20025;-72
2022/10/13 11:07:37;;;;;;;49.20;18.05;;;12.70;99.90;;;;;;5018925;28;20022;-72
2022/10/13 11:10:12;;;;;;;41.75;18.63;;;12.70;99.90;;;;;;5024688;28;20045;-71
2022/10/13 11:12:45;;;;;;;40.75;17.08;;;12.70;99.90;;;;;;5015337;28;20022;-71
2022/10/13 11:15:41;;;;;;;36.90;16.17;;;12.80;99.90;;;;;;5016596;28;20026;-71
2022/10/13 11:18:48;;;;;;;42.58;16.48;;;13.00;99.90;;;;;;5015364;28;20036;-71
2022/10/13 11:21:14;;;;;;;41.13;17.40;;;13.10;99.90;;;;;;5007210;28;20057;-71
2022/10/13 11:23:45;;;;;;;35.30;15.13;;;13.30;99.90;;;;;;5016884;28;20104;-73
2022/10/13 11:26:30;;;;;;;41.10;15.98;;;13.50;99.90;;;;;;5017663;28;20022;-73
2022/10/13 11:28:56;;;;;;;38.90;16.42;;;13.50;99.90;;;;;;5017299;28;20515;-72
2022/10/13 11:31:23;;;;;;;35.90;14.25;;;13.40;99.90;;;;;;5016790;28;20030;-72
2022/10/13 11:33:57;;;;;;;32.97;15.35;;;13.40;99.90;;;;;;5018281;28;20037;-73
2022/10/13 11:36:29;;;;;;;42.83;16.27;;;13.40;99.90;;;;;;5017529;28;20029;-73
2022/10/13 11:39:18;;;;;;;39.55;15.68;;;13.50;99.90;;;;;;5018207;28;20028;-73
2022/10/13 11:42:07;;;;;;;41.15;16.55;;;13.60;99.90;;;;;;5016658;28;20053;-70
2022/10/13 11:44:55;;;;;;;35.97;17.67;;;13.70;99.90;;;;;;5016137;28;20037;-70
2022/10/13 11:47:48;;;;;;;39.80;18.30;;;13.70;99.90;;;;;;5015443;28;20030;-70
2022/10/13 11:50:26;;;;;;;41.83;17.13;;;13.70;99.90;;;;;;5014795;28;20068;-70
2022/10/13 11:53:17;;;;;;;40.50;16.33;;;13.50;99.90;;;;;;5015175;28;20030;-70
2022/10/13 11:55:51;;;;;;;40.63;17.98;;;13.50;99.90;;;;;;5014047;28;20022;-70
2022/10/13 11:58:22;;;;;;;41.30;16.40;;;13.60;99.90;;;;;;5016645;28;20472;-71
2022/10/13 12:01:03;;;;;;;44.75;18.63;;;13.70;99.90;;;;;;5016161;28;20037;-71
2022/10/13 12:03:31;;;;;;;43.33;18.08;;;13.60;99.90;;;;;;5016571;28;20021;-70
2022/10/13 12:06:03;;;;;;;36.05;16.88;;;13.60;99.90;;;;;;5014968;28;20066;-70
2022/10/13 12:08:31;;;;;;;41.42;18.13;;;13.60;99.90;;;;;;5017702;28;20555;-70
2022/10/13 12:10:58;;;;;;;42.67;16.50;;;13.70;99.90;;;;;;5014882;28;20025;-70
2022/10/13 12:13:29;;;;;;;42.15;16.45;;;13.80;99.90;;;;;;5014770;28;20026;-70
2022/10/13 12:16:05;;;;;;;35.90;16.15;;;13.90;99.90;;;;;;5019279;28;20033;-72
2022/10/13 12:18:39;;;;;;;35.95;16.98;;;14.00;99.90;;;;;;5017151;28;20025;-72
2022/10/13 12:21:18;;;;;;;41.88;18.25;;;14.10;99.90;;;;;;5016395;28;20619;-73
2022/10/13 12:23:45;;;;;;;48.22;19.17;;;14.30;99.90;;;;;;5016546;28;20048;-73
2022/10/13 12:26:24;;;;;;;50.38;19.35;;;14.30;99.90;;;;;;5015602;28;20026;-73
2022/10/13 12:29:09;;;;;;;46.55;17.75;;;14.30;99.90;;;;;;5015503;28;20041;-73
2022/10/13 12:31:42;;;;;;;42.45;17.88;;;14.30;99.90;;;;;;5015705;28;20025;-73
2022/10/13 12:34:20;;;;;;;39.47;17.40;;;14.50;99.90;;;;;;5016368;28;20049;-73
2022/10/13 12:36:54;;;;;;;40.53;16.58;;;14.40;99.90;;;;;;5015130;28;20025;-72
2022/10/13 12:39:20;;;;;;;38.50;16.60;;;14.40;99.90;;;;;;5014602;28;20022;-72
2022/10/13 12:41:47;;;;;;;41.75;17.98;;;14.40;99.90;;;;;;5015130;28;20040;-72
2022/10/13 12:44:24;;;;;;;41.20;17.65;;;14.50;99.90;;;;;;5015000;28;20034;-73
2022/10/13 12:46:52;;;;;;;41.88;17.88;;;14.60;99.90;;;;;;5014691;28;20088;-73
2022/10/13 12:49:29;;;;;;;44.15;17.90;;;14.70;99.90;;;;;;5014372;28;20036;-72
2022/10/13 12:52:21;;;;;;;46.72;18.17;;;14.70;99.90;;;;;;5014815;28;20026;-72